sensor_id;sensor_type;location;lat;lon;timestamp;temperature;humidity
43338;DHT22;28933;52.492;13.434;2024-03-02T00:01:44;10.90;99.90
43338;DHT22;28933;52.492;13.434;2024-03-02T00:04:30;10.80;99.90
43338;DHT22;28933;52.492;13.434;2024-03-02T00:07:16;10.90;99.90
43338;DHT22;28933;52.492;13.434;2024-03-02T00:10:08;10.90;99.90
43338;DHT22;28933;52.492;13.434;2024-03-02T00:12:56;10.90;99.90
43338;DHT22;28933;52.492;13.434;2024-03-02T00:15:46;10.90;99.90
43338;DHT22;28933;52.492;13.434;2024-03-02T00:18:34;10.90;99.90
43338;DHT22;28933;52.492;13.434;2024-03-02T00:21:20;10.90;99.90
43338;DHT22;28933;52.492;13.434;2024-03-02T00:24:21;10.90;99.90
43338;DHT22;28933;52.492;13.434;2024-03-02T00:27:12;10.90;99.90
43338;DHT22;28933;52.492;13.434;2024-03-02T00:30:01;10.90;99.90
43338;DHT22;28933;52.492;13.434;2024-03-02T00:32:47;10.90;99.90
43338;DHT22;28933;52.492;13.434;2024-03-02T00:35:33;10.90;99.90
43338;DHT22;28933;52.492;13.434;2024-03-02T00:38:19;10.90;99.90
43338;DHT22;28933;52.492;13.434;2024-03-02T00:41:05;10.90;99.90
43338;DHT22;28933;52.492;13.434;2024-03-02T00:46:43;11.00;99.90
43338;DHT22;28933;52.492;13.434;2024-03-02T00:49:29;11.00;99.90
43338;DHT22;28933;52.492;13.434;2024-03-02T00:52:15;11.00;99.90
43338;DHT22;28933;52.492;13.434;2024-03-02T00:55:01;11.00;99.90
43338;DHT22;28933;52.492;13.434;2024-03-02T00:57:47;11.00;99.90
43338;DHT22;28933;52.492;13.434;2024-03-02T01:00:33;11.10;99.90
43338;DHT22;28933;52.492;13.434;2024-03-02T01:03:19;11.10;99.90
43338;DHT22;28933;52.492;13.434;2024-03-02T01:06:05;11.10;99.90
43338;DHT22;28933;52.492;13.434;2024-03-02T01:08:52;11.10;99.90
43338;DHT22;28933;52.492;13.434;2024-03-02T01:11:38;11.10;99.90
43338;DHT22;28933;52.492;13.434;2024-03-02T01:14:25;11.10;99.90
43338;DHT22;28933;52.492;13.434;2024-03-02T01:17:11;11.00;99.90
43338;DHT22;28933;52.492;13.434;2024-03-02T01:19:57;11.00;99.90
43338;DHT22;28933;52.492;13.434;2024-03-02T01:22:43;11.10;99.90
43338;DHT22;28933;52.492;13.434;2024-03-02T01:25:29;11.10;99.90
43338;DHT22;28933;52.492;13.434;2024-03-02T01:28:15;11.10;99.90
43338;DHT22;28933;52.492;13.434;2024-03-02T01:31:01;11.10;99.90
43338;DHT22;28933;52.492;13.434;2024-03-02T01:33:47;11.00;99.90
43338;DHT22;28933;52.492;13.434;2024-03-02T01:36:33;11.10;99.90
43338;DHT22;28933;52.492;13.434;2024-03-02T01:39:19;11.10;99.90
43338;DHT22;28933;52.492;13.434;2024-03-02T01:42:06;11.00;99.90
43338;DHT22;28933;52.492;13.434;2024-03-02T01:44:52;11.00;99.90
43338;DHT22;28933;52.492;13.434;2024-03-02T01:47:38;11.10;99.90
43338;DHT22;28933;52.492;13.434;2024-03-02T01:50:32;11.10;99.90
43338;DHT22;28933;52.492;13.434;2024-03-02T01:53:18;11.00;99.90
43338;DHT22;28933;52.492;13.434;2024-03-02T01:56:05;11.00;99.90
43338;DHT22;28933;52.492;13.434;2024-03-02T01:58:51;11.10;99.90
43338;DHT22;28933;52.492;13.434;2024-03-02T02:01:37;11.10;99.90
43338;DHT22;28933;52.492;13.434;2024-03-02T02:04:23;11.10;99.90
43338;DHT22;28933;52.492;13.434;2024-03-02T02:07:13;11.00;99.90
43338;DHT22;28933;52.492;13.434;2024-03-02T02:10:00;11.00;99.90
43338;DHT22;28933;52.492;13.434;2024-03-02T02:12:46;11.00;99.90
43338;DHT22;28933;52.492;13.434;2024-03-02T02:15:32;11.00;99.90
43338;DHT22;28933;52.492;13.434;2024-03-02T02:18:20;11.00;99.90
43338;DHT22;28933;52.492;13.434;2024-03-02T02:21:06;11.00;99.90
43338;DHT22;28933;52.492;13.434;2024-03-02T02:23:52;11.00;99.90
43338;DHT22;28933;52.492;13.434;2024-03-02T02:26:38;11.00;99.90
43338;DHT22;28933;52.492;13.434;2024-03-02T02:29:24;11.00;99.90
43338;DHT22;28933;52.492;13.434;2024-03-02T02:32:10;11.00;99.90
43338;DHT22;28933;52.492;13.434;2024-03-02T02:34:56;10.90;99.90
43338;DHT22;28933;52.492;13.434;2024-03-02T02:37:42;10.90;99.90
43338;DHT22;28933;52.492;13.434;2024-03-02T02:40:29;11.00;99.90
43338;DHT22;28933;52.492;13.434;2024-03-02T02:43:16;11.00;99.90
43338;DHT22;28933;52.492;13.434;2024-03-02T02:46:02;11.00;99.90
43338;DHT22;28933;52.492;13.434;2024-03-02T02:48:48;11.00;99.90
43338;DHT22;28933;52.492;13.434;2024-03-02T02:51:34;10.90;99.90
43338;DHT22;28933;52.492;13.434;2024-03-02T02:54:20;10.90;99.90
43338;DHT22;28933;52.492;13.434;2024-03-02T02:57:06;10.90;99.90
43338;DHT22;28933;52.492;13.434;2024-03-02T02:59:52;10.90;99.90
43338;DHT22;28933;52.492;13.434;2024-03-02T03:02:38;10.90;99.90
43338;DHT22;28933;52.492;13.434;2024-03-02T03:05:24;10.90;99.90
43338;DHT22;28933;52.492;13.434;2024-03-02T03:08:10;10.90;99.90
43338;DHT22;28933;52.492;13.434;2024-03-02T03:10:56;10.90;99.90
43338;DHT22;28933;52.492;13.434;2024-03-02T03:13:42;10.90;99.90
43338;DHT22;28933;52.492;13.434;2024-03-02T03:16:28;10.90;99.90
43338;DHT22;28933;52.492;13.434;2024-03-02T03:19:14;10.90;99.90
43338;DHT22;28933;52.492;13.434;2024-03-02T03:22:00;10.90;99.90
43338;DHT22;28933;52.492;13.434;2024-03-02T03:24:46;10.90;99.90
43338;DHT22;28933;52.492;13.434;2024-03-02T03:27:32;10.90;99.90
43338;DHT22;28933;52.492;13.434;2024-03-02T03:30:18;10.90;99.90
43338;DHT22;28933;52.492;13.434;2024-03-02T03:33:05;10.90;99.90
43338;DHT22;28933;52.492;13.434;2024-03-02T03:35:54;10.90;99.90
43338;DHT22;28933;52.492;13.434;2024-03-02T03:38:40;11.00;99.90
43338;DHT22;28933;52.492;13.434;2024-03-02T03:41:26;10.90;99.90
43338;DHT22;28933;52.492;13.434;2024-03-02T03:44:12;10.90;99.90
43338;DHT22;28933;52.492;13.434;2024-03-02T03:46:58;11.00;99.90
43338;DHT22;28933;52.492;13.434;2024-03-02T03:49:44;11.00;99.90
43338;DHT22;28933;52.492;13.434;2024-03-02T03:52:30;11.00;99.90
43338;DHT22;28933;52.492;13.434;2024-03-02T03:55:15;11.00;99.90
43338;DHT22;28933;52.492;13.434;2024-03-02T03:58:01;11.00;99.90
43338;DHT22;28933;52.492;13.434;2024-03-02T04:00:47;11.00;99.90
43338;DHT22;28933;52.492;13.434;2024-03-02T04:03:33;11.10;99.90
43338;DHT22;28933;52.492;13.434;2024-03-02T04:06:19;11.10;99.90
43338;DHT22;28933;52.492;13.434;2024-03-02T04:09:05;11.10;99.90
43338;DHT22;28933;52.492;13.434;2024-03-02T04:11:51;11.00;99.90
43338;DHT22;28933;52.492;13.434;2024-03-02T04:14:37;11.10;99.90
43338;DHT22;28933;52.492;13.434;2024-03-02T04:17:23;11.10;99.90
43338;DHT22;28933;52.492;13.434;2024-03-02T04:20:10;11.10;99.90
43338;DHT22;28933;52.492;13.434;2024-03-02T04:22:58;11.10;99.90
43338;DHT22;28933;52.492;13.434;2024-03-02T04:25:44;11.10;99.90
43338;DHT22;28933;52.492;13.434;2024-03-02T04:28:30;11.10;99.90
43338;DHT22;28933;52.492;13.434;2024-03-02T04:31:16;11.20;99.90
43338;DHT22;28933;52.492;13.434;2024-03-02T04:34:02;11.20;99.90
43338;DHT22;28933;52.492;13.434;2024-03-02T04:36:48;11.10;99.90
43338;DHT22;28933;52.492;13.434;2024-03-02T04:39:35;11.10;99.90
43338;DHT22;28933;52.492;13.434;2024-03-02T04:42:21;11.20;99.90
43338;DHT22;28933;52.492;13.434;2024-03-02T04:45:08;11.20;99.90
43338;DHT22;28933;52.492;13.434;2024-03-02T04:47:54;11.20;99.90
43338;DHT22;28933;52.492;13.434;2024-03-02T04:50:40;11.20;99.90
43338;DHT22;28933;52.492;13.434;2024-03-02T04:53:26;11.30;99.90
43338;DHT22;28933;52.492;13.434;2024-03-02T04:56:12;11.30;99.90
43338;DHT22;28933;52.492;13.434;2024-03-02T04:59:17;11.20;99.90
43338;DHT22;28933;52.492;13.434;2024-03-02T05:02:03;11.20;99.90
43338;DHT22;28933;52.492;13.434;2024-03-02T05:04:49;11.30;99.90
43338;DHT22;28933;52.492;13.434;2024-03-02T05:07:35;11.30;99.90
43338;DHT22;28933;52.492;13.434;2024-03-02T05:10:21;11.30;99.90
43338;DHT22;28933;52.492;13.434;2024-03-02T05:13:07;11.30;99.90
43338;DHT22;28933;52.492;13.434;2024-03-02T05:15:53;11.30;99.90
43338;DHT22;28933;52.492;13.434;2024-03-02T05:18:39;11.30;99.90
43338;DHT22;28933;52.492;13.434;2024-03-02T05:21:25;11.30;99.90
43338;DHT22;28933;52.492;13.434;2024-03-02T05:24:11;11.30;99.90
43338;DHT22;28933;52.492;13.434;2024-03-02T05:26:56;11.40;99.90
43338;DHT22;28933;52.492;13.434;2024-03-02T05:29:42;11.40;99.90
43338;DHT22;28933;52.492;13.434;2024-03-02T05:32:28;11.30;99.90
43338;DHT22;28933;52.492;13.434;2024-03-02T05:35:14;11.30;99.90
43338;DHT22;28933;52.492;13.434;2024-03-02T05:38:00;11.30;99.90
43338;DHT22;28933;52.492;13.434;2024-03-02T05:40:46;11.30;99.90
43338;DHT22;28933;52.492;13.434;2024-03-02T05:43:32;11.30;99.90
43338;DHT22;28933;52.492;13.434;2024-03-02T05:46:18;11.30;99.90
43338;DHT22;28933;52.492;13.434;2024-03-02T05:49:04;11.30;99.90
43338;DHT22;28933;52.492;13.434;2024-03-02T05:51:50;11.30;99.90
43338;DHT22;28933;52.492;13.434;2024-03-02T05:54:36;11.30;99.90
43338;DHT22;28933;52.492;13.434;2024-03-02T05:57:22;11.30;99.90
43338;DHT22;28933;52.492;13.434;2024-03-02T06:00:24;11.30;99.90
43338;DHT22;28933;52.492;13.434;2024-03-02T06:03:10;11.30;99.90
43338;DHT22;28933;52.492;13.434;2024-03-02T06:05:56;11.30;99.90
43338;DHT22;28933;52.492;13.434;2024-03-02T06:08:42;11.30;99.90
43338;DHT22;28933;52.492;13.434;2024-03-02T06:11:28;11.30;99.90
43338;DHT22;28933;52.492;13.434;2024-03-02T06:14:14;11.20;99.90
43338;DHT22;28933;52.492;13.434;2024-03-02T06:17:00;11.20;99.90
43338;DHT22;28933;52.492;13.434;2024-03-02T06:19:46;11.30;99.90
43338;DHT22;28933;52.492;13.434;2024-03-02T06:22:32;11.30;99.90
43338;DHT22;28933;52.492;13.434;2024-03-02T06:25:18;11.30;99.90
43338;DHT22;28933;52.492;13.434;2024-03-02T06:28:04;11.30;99.90
43338;DHT22;28933;52.492;13.434;2024-03-02T06:30:50;11.30;99.90
43338;DHT22;28933;52.492;13.434;2024-03-02T06:33:36;11.30;99.90
43338;DHT22;28933;52.492;13.434;2024-03-02T06:36:22;11.30;99.90
43338;DHT22;28933;52.492;13.434;2024-03-02T06:39:09;11.30;99.90
43338;DHT22;28933;52.492;13.434;2024-03-02T06:41:56;11.30;99.90
43338;DHT22;28933;52.492;13.434;2024-03-02T06:44:41;11.30;99.90
43338;DHT22;28933;52.492;13.434;2024-03-02T06:47:27;11.30;99.90
43338;DHT22;28933;52.492;13.434;2024-03-02T06:50:13;11.30;99.90
43338;DHT22;28933;52.492;13.434;2024-03-02T06:53:00;11.30;99.90
43338;DHT22;28933;52.492;13.434;2024-03-02T06:55:46;11.30;99.90
43338;DHT22;28933;52.492;13.434;2024-03-02T06:58:32;11.30;99.90
43338;DHT22;28933;52.492;13.434;2024-03-02T07:01:18;11.40;99.90
43338;DHT22;28933;52.492;13.434;2024-03-02T07:04:05;11.30;99.90
43338;DHT22;28933;52.492;13.434;2024-03-02T07:06:52;11.30;99.90
43338;DHT22;28933;52.492;13.434;2024-03-02T07:09:38;11.30;99.90
43338;DHT22;28933;52.492;13.434;2024-03-02T07:12:24;11.30;99.90
43338;DHT22;28933;52.492;13.434;2024-03-02T07:15:10;11.30;99.90
43338;DHT22;28933;52.492;13.434;2024-03-02T07:18:19;11.40;99.90
43338;DHT22;28933;52.492;13.434;2024-03-02T07:21:05;11.30;99.90
43338;DHT22;28933;52.492;13.434;2024-03-02T07:23:51;11.30;99.90
43338;DHT22;28933;52.492;13.434;2024-03-02T07:26:37;11.40;99.90
43338;DHT22;28933;52.492;13.434;2024-03-02T07:29:23;11.40;99.90
43338;DHT22;28933;52.492;13.434;2024-03-02T07:32:10;11.40;99.90
43338;DHT22;28933;52.492;13.434;2024-03-02T07:34:56;11.40;99.90
43338;DHT22;28933;52.492;13.434;2024-03-02T07:37:42;11.40;99.90
43338;DHT22;28933;52.492;13.434;2024-03-02T07:40:28;11.40;99.90
43338;DHT22;28933;52.492;13.434;2024-03-02T07:43:14;11.40;99.90
43338;DHT22;28933;52.492;13.434;2024-03-02T07:46:00;11.40;99.90
43338;DHT22;28933;52.492;13.434;2024-03-02T07:48:46;11.50;99.90
43338;DHT22;28933;52.492;13.434;2024-03-02T07:51:33;11.50;99.90
43338;DHT22;28933;52.492;13.434;2024-03-02T07:54:19;11.50;99.90
43338;DHT22;28933;52.492;13.434;2024-03-02T07:57:05;11.50;99.90
43338;DHT22;28933;52.492;13.434;2024-03-02T07:59:51;11.50;99.90
43338;DHT22;28933;52.492;13.434;2024-03-02T08:02:37;11.50;99.90
43338;DHT22;28933;52.492;13.434;2024-03-02T08:05:23;11.50;99.90
43338;DHT22;28933;52.492;13.434;2024-03-02T08:08:09;11.60;99.90
43338;DHT22;28933;52.492;13.434;2024-03-02T08:10:55;11.60;99.90
43338;DHT22;28933;52.492;13.434;2024-03-02T08:13:41;11.60;99.90
43338;DHT22;28933;52.492;13.434;2024-03-02T08:16:27;11.60;99.90
43338;DHT22;28933;52.492;13.434;2024-03-02T08:19:13;11.60;99.90
43338;DHT22;28933;52.492;13.434;2024-03-02T08:21:59;11.60;99.90
43338;DHT22;28933;52.492;13.434;2024-03-02T08:24:45;11.70;99.90
43338;DHT22;28933;52.492;13.434;2024-03-02T08:27:31;11.70;99.90
43338;DHT22;28933;52.492;13.434;2024-03-02T08:30:18;11.70;99.90
43338;DHT22;28933;52.492;13.434;2024-03-02T08:33:04;11.80;99.90
43338;DHT22;28933;52.492;13.434;2024-03-02T08:35:51;11.80;99.90
43338;DHT22;28933;52.492;13.434;2024-03-02T08:38:37;11.70;99.90
43338;DHT22;28933;52.492;13.434;2024-03-02T08:41:23;11.80;99.90
43338;DHT22;28933;52.492;13.434;2024-03-02T08:44:09;11.80;99.90
43338;DHT22;28933;52.492;13.434;2024-03-02T08:46:56;11.80;99.90
43338;DHT22;28933;52.492;13.434;2024-03-02T08:49:42;11.80;99.90
43338;DHT22;28933;52.492;13.434;2024-03-02T08:52:28;11.80;99.90
43338;DHT22;28933;52.492;13.434;2024-03-02T08:55:14;11.90;99.90
43338;DHT22;28933;52.492;13.434;2024-03-02T08:58:00;11.90;99.90
43338;DHT22;28933;52.492;13.434;2024-03-02T09:00:50;11.90;99.90
43338;DHT22;28933;52.492;13.434;2024-03-02T09:03:35;11.90;99.90
43338;DHT22;28933;52.492;13.434;2024-03-02T09:06:22;11.90;99.90
43338;DHT22;28933;52.492;13.434;2024-03-02T09:09:08;11.90;99.90
43338;DHT22;28933;52.492;13.434;2024-03-02T09:11:54;12.00;99.90
43338;DHT22;28933;52.492;13.434;2024-03-02T09:14:43;12.00;99.90
43338;DHT22;28933;52.492;13.434;2024-03-02T09:17:29;12.00;99.90
43338;DHT22;28933;52.492;13.434;2024-03-02T09:20:15;12.00;99.90
43338;DHT22;28933;52.492;13.434;2024-03-02T09:23:02;12.00;99.90
43338;DHT22;28933;52.492;13.434;2024-03-02T09:25:48;12.10;99.90
43338;DHT22;28933;52.492;13.434;2024-03-02T09:28:34;12.10;99.90
43338;DHT22;28933;52.492;13.434;2024-03-02T09:31:20;12.10;99.90
43338;DHT22;28933;52.492;13.434;2024-03-02T09:34:06;12.10;99.90
43338;DHT22;28933;52.492;13.434;2024-03-02T09:36:52;12.20;99.90
43338;DHT22;28933;52.492;13.434;2024-03-02T09:39:38;12.20;99.90
43338;DHT22;28933;52.492;13.434;2024-03-02T09:42:24;12.30;99.90
43338;DHT22;28933;52.492;13.434;2024-03-02T09:45:10;12.30;99.90
43338;DHT22;28933;52.492;13.434;2024-03-02T09:47:56;12.40;99.90
43338;DHT22;28933;52.492;13.434;2024-03-02T09:50:43;12.50;99.90
43338;DHT22;28933;52.492;13.434;2024-03-02T09:53:33;12.60;99.90
43338;DHT22;28933;52.492;13.434;2024-03-02T09:56:21;12.70;99.90
43338;DHT22;28933;52.492;13.434;2024-03-02T09:59:07;12.80;99.90
43338;DHT22;28933;52.492;13.434;2024-03-02T10:02:00;12.90;99.90
43338;DHT22;28933;52.492;13.434;2024-03-02T10:04:49;12.90;99.90
43338;DHT22;28933;52.492;13.434;2024-03-02T10:07:35;13.00;99.90
43338;DHT22;28933;52.492;13.434;2024-03-02T10:10:21;13.10;99.90
43338;DHT22;28933;52.492;13.434;2024-03-02T10:13:11;13.20;99.90
43338;DHT22;28933;52.492;13.434;2024-03-02T10:16:11;13.20;99.90
43338;DHT22;28933;52.492;13.434;2024-03-02T10:18:57;13.30;99.90
43338;DHT22;28933;52.492;13.434;2024-03-02T10:21:51;13.40;99.90
43338;DHT22;28933;52.492;13.434;2024-03-02T10:24:43;13.50;99.90
43338;DHT22;28933;52.492;13.434;2024-03-02T10:27:34;13.50;99.90
43338;DHT22;28933;52.492;13.434;2024-03-02T10:30:20;13.60;99.90
43338;DHT22;28933;52.492;13.434;2024-03-02T10:33:06;13.60;99.90
43338;DHT22;28933;52.492;13.434;2024-03-02T10:35:52;13.70;99.90
43338;DHT22;28933;52.492;13.434;2024-03-02T10:38:40;13.70;99.90
43338;DHT22;28933;52.492;13.434;2024-03-02T10:41:27;13.80;99.90
43338;DHT22;28933;52.492;13.434;2024-03-02T10:44:14;13.80;99.90
43338;DHT22;28933;52.492;13.434;2024-03-02T10:47:01;13.90;99.90
43338;DHT22;28933;52.492;13.434;2024-03-02T10:49:49;14.00;99.90
43338;DHT22;28933;52.492;13.434;2024-03-02T10:52:36;14.00;99.90
43338;DHT22;28933;52.492;13.434;2024-03-02T10:55:22;14.10;99.90
43338;DHT22;28933;52.492;13.434;2024-03-02T10:58:12;14.10;99.90
43338;DHT22;28933;52.492;13.434;2024-03-02T11:01:02;14.20;99.90
43338;DHT22;28933;52.492;13.434;2024-03-02T11:03:48;14.30;99.90
43338;DHT22;28933;52.492;13.434;2024-03-02T11:06:35;14.30;99.90
43338;DHT22;28933;52.492;13.434;2024-03-02T11:09:27;14.30;99.90
43338;DHT22;28933;52.492;13.434;2024-03-02T11:12:22;14.40;99.90
43338;DHT22;28933;52.492;13.434;2024-03-02T11:15:10;14.40;99.90
43338;DHT22;28933;52.492;13.434;2024-03-02T11:17:58;14.40;99.90
43338;DHT22;28933;52.492;13.434;2024-03-02T11:20:44;14.50;99.90
43338;DHT22;28933;52.492;13.434;2024-03-02T11:23:34;14.60;99.90
43338;DHT22;28933;52.492;13.434;2024-03-02T11:26:21;14.60;99.90
43338;DHT22;28933;52.492;13.434;2024-03-02T11:32:22;14.70;99.90
43338;DHT22;28933;52.492;13.434;2024-03-02T11:35:11;14.80;99.90
43338;DHT22;28933;52.492;13.434;2024-03-02T11:37:57;14.80;99.90
43338;DHT22;28933;52.492;13.434;2024-03-02T11:40:44;14.80;99.90
43338;DHT22;28933;52.492;13.434;2024-03-02T11:43:30;14.90;99.90
43338;DHT22;28933;52.492;13.434;2024-03-02T11:46:17;15.00;99.70
43338;DHT22;28933;52.492;13.434;2024-03-02T11:49:07;15.00;99.60
43338;DHT22;28933;52.492;13.434;2024-03-02T11:52:01;15.00;99.50
43338;DHT22;28933;52.492;13.434;2024-03-02T11:54:48;15.00;99.30
43338;DHT22;28933;52.492;13.434;2024-03-02T11:57:34;15.10;99.30
43338;DHT22;28933;52.492;13.434;2024-03-02T12:00:20;15.10;99.10
43338;DHT22;28933;52.492;13.434;2024-03-02T12:03:08;15.20;98.80
43338;DHT22;28933;52.492;13.434;2024-03-02T12:05:55;15.10;98.80
43338;DHT22;28933;52.492;13.434;2024-03-02T12:08:41;15.20;98.80
43338;DHT22;28933;52.492;13.434;2024-03-02T12:11:27;15.20;98.70
43338;DHT22;28933;52.492;13.434;2024-03-02T12:14:13;15.30;98.70
43338;DHT22;28933;52.492;13.434;2024-03-02T12:16:59;15.30;98.60
43338;DHT22;28933;52.492;13.434;2024-03-02T12:19:45;15.40;98.50
43338;DHT22;28933;52.492;13.434;2024-03-02T12:22:31;15.50;98.50
43338;DHT22;28933;52.492;13.434;2024-03-02T12:25:18;15.50;98.40
43338;DHT22;28933;52.492;13.434;2024-03-02T12:28:05;15.60;98.30
43338;DHT22;28933;52.492;13.434;2024-03-02T12:30:51;15.60;97.90
43338;DHT22;28933;52.492;13.434;2024-03-02T12:33:37;15.60;97.80
43338;DHT22;28933;52.492;13.434;2024-03-02T12:36:23;15.60;97.70
43338;DHT22;28933;52.492;13.434;2024-03-02T12:39:09;15.60;97.70
43338;DHT22;28933;52.492;13.434;2024-03-02T12:41:58;15.60;97.80
43338;DHT22;28933;52.492;13.434;2024-03-02T12:44:44;15.70;97.70
43338;DHT22;28933;52.492;13.434;2024-03-02T12:47:30;15.70;97.70
43338;DHT22;28933;52.492;13.434;2024-03-02T12:50:16;15.80;97.70
43338;DHT22;28933;52.492;13.434;2024-03-02T12:53:02;15.80;97.70
43338;DHT22;28933;52.492;13.434;2024-03-02T12:55:48;15.90;97.40
43338;DHT22;28933;52.492;13.434;2024-03-02T12:58:40;16.00;97.40
43338;DHT22;28933;52.492;13.434;2024-03-02T13:01:27;16.00;97.30
43338;DHT22;28933;52.492;13.434;2024-03-02T13:04:13;16.10;97.20
43338;DHT22;28933;52.492;13.434;2024-03-02T13:06:59;16.20;96.90
43338;DHT22;28933;52.492;13.434;2024-03-02T13:09:46;16.20;96.90
43338;DHT22;28933;52.492;13.434;2024-03-02T13:12:32;16.20;96.70
43338;DHT22;28933;52.492;13.434;2024-03-02T13:15:19;16.30;96.60
43338;DHT22;28933;52.492;13.434;2024-03-02T13:18:07;16.30;96.30
43338;DHT22;28933;52.492;13.434;2024-03-02T13:20:53;16.30;96.20
43338;DHT22;28933;52.492;13.434;2024-03-02T13:23:39;16.30;96.00
43338;DHT22;28933;52.492;13.434;2024-03-02T13:26:25;16.40;95.90
43338;DHT22;28933;52.492;13.434;2024-03-02T13:29:10;16.40;96.00
43338;DHT22;28933;52.492;13.434;2024-03-02T13:31:57;16.50;96.00
43338;DHT22;28933;52.492;13.434;2024-03-02T13:34:43;16.50;95.40
43338;DHT22;28933;52.492;13.434;2024-03-02T13:37:29;16.40;95.10
43338;DHT22;28933;52.492;13.434;2024-03-02T13:40:15;16.40;95.10
43338;DHT22;28933;52.492;13.434;2024-03-02T13:43:05;16.40;95.00
43338;DHT22;28933;52.492;13.434;2024-03-02T13:45:51;16.30;95.00
43338;DHT22;28933;52.492;13.434;2024-03-02T13:48:37;16.30;95.00
43338;DHT22;28933;52.492;13.434;2024-03-02T13:51:23;16.30;94.90
43338;DHT22;28933;52.492;13.434;2024-03-02T13:54:10;16.30;94.80
43338;DHT22;28933;52.492;13.434;2024-03-02T13:56:57;16.40;94.90
43338;DHT22;28933;52.492;13.434;2024-03-02T13:59:46;16.40;94.80
43338;DHT22;28933;52.492;13.434;2024-03-02T14:02:32;16.40;94.80
43338;DHT22;28933;52.492;13.434;2024-03-02T14:05:18;16.40;94.80
43338;DHT22;28933;52.492;13.434;2024-03-02T14:08:05;16.50;94.70
43338;DHT22;28933;52.492;13.434;2024-03-02T14:10:51;16.50;94.70
43338;DHT22;28933;52.492;13.434;2024-03-02T14:13:37;16.50;94.50
43338;DHT22;28933;52.492;13.434;2024-03-02T14:16:22;16.60;94.20
43338;DHT22;28933;52.492;13.434;2024-03-02T14:19:08;16.60;94.10
43338;DHT22;28933;52.492;13.434;2024-03-02T14:21:55;16.60;94.20
43338;DHT22;28933;52.492;13.434;2024-03-02T14:24:42;16.50;93.90
43338;DHT22;28933;52.492;13.434;2024-03-02T14:27:29;16.50;94.10
43338;DHT22;28933;52.492;13.434;2024-03-02T14:30:15;16.50;94.00
43338;DHT22;28933;52.492;13.434;2024-03-02T14:33:01;16.50;93.90
43338;DHT22;28933;52.492;13.434;2024-03-02T14:35:47;16.40;93.80
43338;DHT22;28933;52.492;13.434;2024-03-02T14:38:32;16.50;93.70
43338;DHT22;28933;52.492;13.434;2024-03-02T14:41:18;16.40;93.80
43338;DHT22;28933;52.492;13.434;2024-03-02T14:44:04;16.40;93.90
43338;DHT22;28933;52.492;13.434;2024-03-02T14:46:50;16.40;94.00
43338;DHT22;28933;52.492;13.434;2024-03-02T14:49:36;16.30;94.00
43338;DHT22;28933;52.492;13.434;2024-03-02T14:52:26;16.30;93.80
43338;DHT22;28933;52.492;13.434;2024-03-02T14:55:12;16.20;93.70
43338;DHT22;28933;52.492;13.434;2024-03-02T14:57:57;16.20;93.80
43338;DHT22;28933;52.492;13.434;2024-03-02T15:00:43;16.10;93.80
43338;DHT22;28933;52.492;13.434;2024-03-02T15:03:29;16.10;93.90
43338;DHT22;28933;52.492;13.434;2024-03-02T15:06:15;16.00;93.90
43338;DHT22;28933;52.492;13.434;2024-03-02T15:09:01;16.00;93.90
43338;DHT22;28933;52.492;13.434;2024-03-02T15:11:47;16.00;94.00
43338;DHT22;28933;52.492;13.434;2024-03-02T15:14:33;15.90;94.00
43338;DHT22;28933;52.492;13.434;2024-03-02T15:17:19;15.90;94.00
43338;DHT22;28933;52.492;13.434;2024-03-02T15:20:06;15.90;94.00
43338;DHT22;28933;52.492;13.434;2024-03-02T15:22:53;15.90;94.00
43338;DHT22;28933;52.492;13.434;2024-03-02T15:25:39;15.80;93.90
43338;DHT22;28933;52.492;13.434;2024-03-02T15:28:24;15.80;93.90
43338;DHT22;28933;52.492;13.434;2024-03-02T15:31:10;15.80;93.80
43338;DHT22;28933;52.492;13.434;2024-03-02T15:33:56;15.70;93.90
43338;DHT22;28933;52.492;13.434;2024-03-02T15:36:44;15.80;93.90
43338;DHT22;28933;52.492;13.434;2024-03-02T15:39:30;15.70;94.00
43338;DHT22;28933;52.492;13.434;2024-03-02T15:42:16;15.80;94.00
43338;DHT22;28933;52.492;13.434;2024-03-02T15:45:02;15.80;94.10
43338;DHT22;28933;52.492;13.434;2024-03-02T15:47:48;15.70;94.00
43338;DHT22;28933;52.492;13.434;2024-03-02T15:50:34;15.70;94.00
43338;DHT22;28933;52.492;13.434;2024-03-02T15:53:22;15.60;94.20
43338;DHT22;28933;52.492;13.434;2024-03-02T15:56:08;15.60;94.10
43338;DHT22;28933;52.492;13.434;2024-03-02T15:58:55;15.50;94.00
43338;DHT22;28933;52.492;13.434;2024-03-02T16:01:41;15.40;94.00
43338;DHT22;28933;52.492;13.434;2024-03-02T16:04:29;15.30;94.10
43338;DHT22;28933;52.492;13.434;2024-03-02T16:07:14;15.20;94.10
43338;DHT22;28933;52.492;13.434;2024-03-02T16:10:00;15.20;94.20
43338;DHT22;28933;52.492;13.434;2024-03-02T16:12:50;15.10;94.30
43338;DHT22;28933;52.492;13.434;2024-03-02T16:15:37;15.00;94.40
43338;DHT22;28933;52.492;13.434;2024-03-02T16:18:23;14.90;94.50
43338;DHT22;28933;52.492;13.434;2024-03-02T16:21:09;14.80;94.60
43338;DHT22;28933;52.492;13.434;2024-03-02T16:23:55;14.80;94.80
43338;DHT22;28933;52.492;13.434;2024-03-02T16:26:41;14.70;94.80
43338;DHT22;28933;52.492;13.434;2024-03-02T16:29:27;14.60;94.90
43338;DHT22;28933;52.492;13.434;2024-03-02T16:32:13;14.50;95.00
43338;DHT22;28933;52.492;13.434;2024-03-02T16:34:59;14.50;95.20
43338;DHT22;28933;52.492;13.434;2024-03-02T16:37:45;14.40;95.20
43338;DHT22;28933;52.492;13.434;2024-03-02T16:40:31;14.40;95.40
43338;DHT22;28933;52.492;13.434;2024-03-02T16:43:17;14.30;95.70
43338;DHT22;28933;52.492;13.434;2024-03-02T16:46:03;14.20;95.60
43338;DHT22;28933;52.492;13.434;2024-03-02T16:48:51;14.20;95.70
43338;DHT22;28933;52.492;13.434;2024-03-02T16:51:41;14.10;95.70
43338;DHT22;28933;52.492;13.434;2024-03-02T16:54:27;14.00;96.10
43338;DHT22;28933;52.492;13.434;2024-03-02T16:57:13;14.00;95.90
43338;DHT22;28933;52.492;13.434;2024-03-02T16:59:59;13.90;96.00
43338;DHT22;28933;52.492;13.434;2024-03-02T17:02:45;13.90;96.10
43338;DHT22;28933;52.492;13.434;2024-03-02T17:05:31;13.80;96.20
43338;DHT22;28933;52.492;13.434;2024-03-02T17:08:16;13.80;96.30
43338;DHT22;28933;52.492;13.434;2024-03-02T17:11:02;13.80;96.40
43338;DHT22;28933;52.492;13.434;2024-03-02T17:13:49;13.70;96.40
43338;DHT22;28933;52.492;13.434;2024-03-02T17:16:38;13.70;96.50
43338;DHT22;28933;52.492;13.434;2024-03-02T17:19:23;13.70;96.60
43338;DHT22;28933;52.492;13.434;2024-03-02T17:22:09;13.60;96.70